Time;durP1;ratioP1;P1;durP2;ratioP2;P2;SDS_P1;SDS_P2;PMS_P1;PMS_P2;Temp;Humidity;BMP_temperature;BMP_pressure;BME280_temperature;BME280_humidity;BME280_pressure;Samples;Min_cycle;Max_cycle;Signal;HPM_P1;HPM_P2
2023/08/14 00:02:02;;;;;;;19.15;9.52;;;19.00;99.90;;;;;;4956359;28;20019;-74
2023/08/14 00:04:28;;;;;;;15.93;10.23;;;19.00;99.90;;;;;;4955871;28;20446;-73
2023/08/14 00:06:54;;;;;;;13.70;8.48;;;18.90;99.90;;;;;;4956166;28;20050;-73
2023/08/14 00:09:20;;;;;;;15.35;7.95;;;18.80;99.90;;;;;;4955714;28;20023;-73
2023/08/14 00:11:46;;;;;;;17.27;9.02;;;18.60;99.90;;;;;;4955831;28;20480;-73
2023/08/14 00:14:12;;;;;;;13.98;8.70;;;18.60;99.90;;;;;;4956005;28;20073;-74
2023/08/14 00:16:38;;;;;;;16.85;9.15;;;18.60;99.90;;;;;;4955897;28;20027;-73
2023/08/14 00:19:04;;;;;;;16.00;8.98;;;18.60;99.90;;;;;;4955805;28;20387;-74
2023/08/14 00:21:29;;;;;;;13.55;9.32;;;18.60;99.90;;;;;;4955666;28;20031;-73
2023/08/14 00:23:55;;;;;;;13.07;8.27;;;18.60;99.90;;;;;;4955991;28;20027;-73
2023/08/14 00:26:21;;;;;;;20.20;9.70;;;18.60;99.90;;;;;;4955773;28;20031;-74
2023/08/14 00:28:47;;;;;;;13.48;9.65;;;18.40;99.90;;;;;;4955680;28;20206;-73
2023/08/14 00:31:13;;;;;;;14.38;9.23;;;18.30;99.90;;;;;;4955651;28;20043;-73
2023/08/14 00:33:39;;;;;;;11.90;8.35;;;18.30;99.90;;;;;;4955540;28;20133;-74
2023/08/14 00:36:05;;;;;;;18.58;8.77;;;18.30;99.90;;;;;;4955632;28;20063;-73
2023/08/14 00:38:31;;;;;;;13.50;8.82;;;18.30;99.90;;;;;;4955266;28;20024;-74
2023/08/14 00:40:57;;;;;;;13.65;8.90;;;18.30;99.90;;;;;;4938899;29;20039;-73
2023/08/14 00:43:23;;;;;;;17.83;9.57;;;18.30;99.90;;;;;;4936824;28;20115;-73
2023/08/14 00:45:54;;;;;;;15.88;9.32;;;18.30;99.90;;;;;;4941461;28;20091;-73
2023/08/14 00:48:20;;;;;;;12.82;8.60;;;18.30;99.90;;;;;;4920465;29;20122;-73
2023/08/14 00:50:46;;;;;;;14.13;8.95;;;18.40;99.90;;;;;;4933606;29;20090;-73
2023/08/14 00:53:14;;;;;;;14.88;9.07;;;18.30;99.90;;;;;;4934901;29;20052;-73
2023/08/14 00:55:40;;;;;;;13.05;9.50;;;18.20;99.90;;;;;;4933716;29;20446;-73
2023/08/14 00:58:07;;;;;;;13.10;9.38;;;18.00;99.90;;;;;;4934156;29;20062;-73
2023/08/14 01:00:35;;;;;;;11.63;8.65;;;18.00;99.90;;;;;;4937791;28;20077;-73
2023/08/14 01:03:02;;;;;;;13.60;9.00;;;18.10;99.90;;;;;;4942244;29;20027;-73
2023/08/14 01:05:28;;;;;;;14.15;9.05;;;18.10;99.90;;;;;;4931655;29;20079;-73
2023/08/14 01:07:55;;;;;;;16.35;10.15;;;18.20;99.90;;;;;;4934497;29;20032;-73
2023/08/14 01:10:22;;;;;;;15.60;10.38;;;18.10;99.90;;;;;;4939833;29;20044;-73
2023/08/14 01:13:36;;;;;;;19.60;10.05;;;18.10;99.90;;;;;;4916761;28;20043;-72
2023/08/14 01:16:08;;;;;;;17.20;9.88;;;18.10;99.90;;;;;;4881346;29;20068;-74
2023/08/14 01:18:35;;;;;;;17.08;10.13;;;17.90;99.90;;;;;;4887569;29;20810;-73
2023/08/14 01:21:21;;;;;;;14.80;9.65;;;17.90;99.90;;;;;;4895354;29;20111;-73
2023/08/14 01:23:56;;;;;;;13.57;9.02;;;17.90;99.90;;;;;;4895433;29;20115;-73
2023/08/14 01:26:22;;;;;;;14.00;8.52;;;17.80;99.90;;;;;;4879846;29;20044;-73
2023/08/14 01:28:49;;;;;;;14.30;8.85;;;17.80;99.90;;;;;;4895216;29;20452;-74
2023/08/14 01:31:15;;;;;;;14.05;9.20;;;17.90;99.90;;;;;;4895661;29;20161;-74
2023/08/14 01:33:41;;;;;;;17.13;9.85;;;17.90;99.90;;;;;;4895343;29;20115;-73
2023/08/14 01:36:50;;;;;;;14.85;9.93;;;17.90;99.90;;;;;;4895386;29;20036;-73
2023/08/14 01:39:19;;;;;;;12.55;8.85;;;17.90;99.90;;;;;;4895425;29;20041;-73
2023/08/14 01:41:56;;;;;;;14.50;8.68;;;18.00;99.90;;;;;;4879154;29;20058;-74
2023/08/14 01:44:25;;;;;;;12.75;8.75;;;17.90;99.90;;;;;;4895496;29;20032;-73
2023/08/14 01:46:53;;;;;;;16.65;9.60;;;17.90;99.90;;;;;;4894951;29;20488;-73
2023/08/14 01:49:20;;;;;;;15.75;9.60;;;17.80;99.90;;;;;;4895108;29;20119;-73
2023/08/14 01:51:47;;;;;;;16.30;9.15;;;17.80;99.90;;;;;;4913316;28;20527;-74
2023/08/14 01:54:13;;;;;;;14.70;9.65;;;17.90;99.90;;;;;;4936919;29;20083;-74
2023/08/14 01:56:39;;;;;;;16.25;9.90;;;17.70;99.90;;;;;;4954054;28;20035;-74
2023/08/14 01:59:05;;;;;;;16.30;8.95;;;17.70;99.90;;;;;;4936891;29;20558;-74
2023/08/14 02:01:30;;;;;;;13.90;9.07;;;17.70;99.90;;;;;;4936955;29;20027;-73
2023/08/14 02:03:57;;;;;;;12.98;9.48;;;17.70;99.90;;;;;;4953781;28;20027;-73
2023/08/14 02:06:26;;;;;;;15.02;8.88;;;17.70;99.90;;;;;;4936693;29;20023;-73
2023/08/14 02:08:52;;;;;;;13.63;8.52;;;17.60;99.90;;;;;;4953770;28;20489;-73
2023/08/14 02:11:18;;;;;;;13.93;9.02;;;17.50;99.90;;;;;;4966364;28;20377;-74
2023/08/14 02:13:44;;;;;;;15.57;9.68;;;17.50;99.90;;;;;;4936155;29;20372;-73
2023/08/14 02:16:10;;;;;;;13.15;9.25;;;17.40;99.90;;;;;;4935920;29;20031;-73
2023/08/14 02:18:35;;;;;;;16.17;10.52;;;17.40;99.90;;;;;;4936877;29;20031;-73
2023/08/14 02:21:01;;;;;;;16.35;9.75;;;17.40;99.90;;;;;;4936370;29;20498;-73
2023/08/14 02:23:27;;;;;;;16.48;10.88;;;17.40;99.90;;;;;;4936735;29;20043;-73
2023/08/14 02:25:55;;;;;;;15.25;10.55;;;17.40;99.90;;;;;;4936359;29;20467;-73
2023/08/14 02:28:21;;;;;;;13.23;9.85;;;17.20;99.90;;;;;;4954114;28;20034;-73
2023/08/14 02:30:48;;;;;;;14.68;10.00;;;17.20;99.90;;;;;;4936109;29;20047;-74
2023/08/14 02:33:14;;;;;;;14.80;10.45;;;17.20;99.90;;;;;;4954099;28;20383;-73
2023/08/14 02:35:40;;;;;;;17.98;10.70;;;17.20;99.90;;;;;;4936250;29;20027;-73
2023/08/14 02:38:07;;;;;;;15.77;10.95;;;17.10;99.90;;;;;;4953462;28;20043;-73
2023/08/14 02:40:33;;;;;;;17.13;10.15;;;17.20;99.90;;;;;;4953987;28;20406;-74
2023/08/14 02:43:00;;;;;;;16.95;10.25;;;17.20;99.90;;;;;;4953604;28;20452;-73
2023/08/14 02:45:26;;;;;;;17.20;11.55;;;17.20;99.90;;;;;;4953771;28;20024;-73
2023/08/14 02:47:52;;;;;;;18.42;12.10;;;17.20;99.90;;;;;;4936220;29;20054;-74
2023/08/14 02:50:21;;;;;;;18.50;11.65;;;17.20;99.90;;;;;;4953653;28;20027;-73
2023/08/14 02:52:47;;;;;;;17.00;11.23;;;17.20;99.90;;;;;;4953362;28;20110;-73
2023/08/14 02:55:13;;;;;;;16.38;10.55;;;17.20;99.90;;;;;;4953532;28;20036;-73
2023/08/14 02:57:39;;;;;;;18.23;10.85;;;17.20;99.90;;;;;;4936499;29;20042;-72
2023/08/14 03:00:06;;;;;;;17.75;11.65;;;17.10;99.90;;;;;;4936077;28;20479;-72
2023/08/14 03:02:34;;;;;;;16.13;11.30;;;17.10;99.90;;;;;;4936647;29;20043;-73
2023/08/14 03:05:00;;;;;;;17.45;10.80;;;17.20;99.90;;;;;;4917188;28;20475;-73
2023/08/14 03:07:26;;;;;;;17.85;10.60;;;17.20;99.90;;;;;;4923455;29;20035;-73
2023/08/14 03:09:53;;;;;;;19.00;11.32;;;17.20;99.90;;;;;;4953403;28;20380;-72
2023/08/14 03:12:18;;;;;;;14.40;9.82;;;17.20;99.90;;;;;;4953333;28;20043;-72
2023/08/14 03:14:44;;;;;;;14.02;9.88;;;17.20;99.90;;;;;;4936108;28;20027;-73
2023/08/14 03:17:10;;;;;;;14.30;9.27;;;17.20;99.90;;;;;;4953640;28;20519;-73
2023/08/14 03:19:36;;;;;;;14.93;9.73;;;17.30;99.90;;;;;;4935972;29;20122;-73
2023/08/14 03:22:02;;;;;;;15.38;10.50;;;17.10;99.90;;;;;;4952689;28;20059;-73
2023/08/14 03:24:28;;;;;;;16.38;10.02;;;17.10;99.90;;;;;;4953986;28;20035;-73
2023/08/14 03:26:53;;;;;;;16.20;9.77;;;17.10;99.90;;;;;;4956738;28;20039;-73
2023/08/14 03:29:20;;;;;;;14.50;10.02;;;17.10;99.90;;;;;;4968770;28;20027;-74
2023/08/14 03:31:46;;;;;;;12.95;9.18;;;17.10;99.90;;;;;;4939617;29;20066;-73
2023/08/14 03:34:12;;;;;;;16.75;10.50;;;17.10;99.90;;;;;;4959933;28;20054;-74
2023/08/14 03:36:38;;;;;;;15.75;11.15;;;17.00;99.90;;;;;;4964928;28;20551;-73
2023/08/14 03:39:04;;;;;;;14.90;10.45;;;17.10;99.90;;;;;;4951490;29;20090;-73
2023/08/14 03:41:30;;;;;;;14.75;10.68;;;17.10;99.90;;;;;;4956304;28;20114;-73
2023/08/14 03:43:59;;;;;;;15.73;10.70;;;17.10;99.90;;;;;;4939123;29;20023;-74
2023/08/14 03:46:24;;;;;;;16.63;10.73;;;17.10;99.90;;;;;;4956462;28;20464;-73
2023/08/14 03:48:50;;;;;;;16.42;11.55;;;17.10;99.90;;;;;;4939301;29;20024;-74
2023/08/14 03:51:16;;;;;;;16.35;10.73;;;17.10;99.90;;;;;;4939017;29;20044;-74
2023/08/14 03:53:44;;;;;;;14.80;9.98;;;17.20;99.90;;;;;;4955823;28;20026;-73
2023/08/14 03:56:09;;;;;;;15.02;10.60;;;17.40;99.90;;;;;;4939035;29;20043;-73
2023/08/14 03:58:35;;;;;;;14.98;9.23;;;17.70;99.90;;;;;;4938816;29;20086;-73
2023/08/14 04:01:01;;;;;;;17.80;9.93;;;17.90;99.90;;;;;;4938740;29;20019;-73
2023/08/14 04:03:27;;;;;;;17.48;10.07;;;18.20;99.90;;;;;;4956051;28;20023;-74
2023/08/14 04:05:59;;;;;;;12.93;9.45;;;18.40;99.90;;;;;;4956154;28;20034;-73
2023/08/14 04:08:25;;;;;;;14.77;9.45;;;18.80;99.90;;;;;;4938565;29;20481;-73
2023/08/14 04:10:57;;;;;;;18.00;10.60;;;19.10;99.90;;;;;;4956008;28;20467;-74
2023/08/14 04:13:24;;;;;;;;;;;19.10;99.90;;;;;;4956059;28;20114;-74
2023/08/14 04:15:50;;;;;;;13.57;9.25;;;19.40;99.90;;;;;;4955353;28;19914;-73
2023/08/14 04:18:16;;;;;;;13.60;9.13;;;19.80;99.90;;;;;;4955786;28;20074;-74
2023/08/14 04:20:42;;;;;;;12.70;8.57;;;20.20;99.90;;;;;;4938143;28;20035;-73
2023/08/14 04:23:08;;;;;;;14.95;8.77;;;20.60;99.90;;;;;;4937817;29;20039;-73
2023/08/14 04:25:34;;;;;;;14.63;9.07;;;20.90;99.90;;;;;;4937863;28;20035;-74
2023/08/14 04:28:00;;;;;;;10.57;7.85;;;21.30;99.90;;;;;;4938637;29;20090;-73
2023/08/14 04:30:27;;;;;;;14.00;8.93;;;21.90;99.90;;;;;;4955245;28;20051;-72
2023/08/14 04:32:52;;;;;;;15.05;8.65;;;22.40;99.90;;;;;;4955958;28;20459;-73
2023/08/14 04:35:18;;;;;;;14.25;8.00;;;22.60;99.50;;;;;;4954811;28;20030;-72
2023/08/14 04:37:46;;;;;;;14.05;8.05;;;22.90;98.50;;;;;;4936610;29;20027;-73
2023/08/14 04:40:11;;;;;;;17.85;8.30;;;23.20;98.00;;;;;;4938173;29;20485;-73
2023/08/14 04:42:37;;;;;;;10.93;8.00;;;23.60;97.00;;;;;;4955269;28;20031;-71
2023/08/14 04:45:05;;;;;;;11.30;7.35;;;23.60;96.50;;;;;;4955353;28;20036;-72
2023/08/14 04:47:31;;;;;;;12.18;7.40;;;23.90;95.90;;;;;;4938196;29;20034;-72
2023/08/14 04:49:59;;;;;;;12.52;7.78;;;24.00;95.10;;;;;;4938063;28;20023;-71
2023/08/14 04:52:24;;;;;;;10.80;7.22;;;24.20;95.20;;;;;;4954955;28;20535;-73
2023/08/14 04:54:52;;;;;;;12.23;7.20;;;24.70;94.30;;;;;;4955347;28;20455;-73
2023/08/14 04:57:18;;;;;;;10.70;6.32;;;25.20;93.70;;;;;;4938004;29;20119;-73
2023/08/14 04:59:44;;;;;;;13.70;7.53;;;25.70;92.40;;;;;;4937629;29;20054;-73
2023/08/14 05:02:10;;;;;;;11.15;7.20;;;25.90;91.70;;;;;;4937976;29;20046;-73
2023/08/14 05:04:37;;;;;;;11.35;8.05;;;26.00;91.10;;;;;;4937349;29;20114;-73
2023/08/14 05:07:03;;;;;;;14.85;7.95;;;26.30;90.40;;;;;;4954861;28;20130;-73
2023/08/14 05:09:29;;;;;;;13.80;8.30;;;26.40;90.50;;;;;;4954862;28;20102;-73
2023/08/14 05:11:58;;;;;;;12.30;8.20;;;26.40;90.00;;;;;;4937763;29;20046;-73
2023/08/14 05:14:24;;;;;;;19.63;9.43;;;25.10;90.80;;;;;;4954256;28;20110;-73
2023/08/14 05:16:51;;;;;;;17.35;9.05;;;24.60;91.70;;;;;;4937928;29;20394;-73
2023/08/14 05:19:17;;;;;;;16.38;9.05;;;24.20;93.00;;;;;;4937258;29;20035;-73
2023/08/14 05:21:44;;;;;;;19.58;8.93;;;23.70;93.60;;;;;;4937635;29;20491;-73
2023/08/14 05:24:12;;;;;;;17.90;8.68;;;23.60;93.30;;;;;;4937234;28;20039;-73
2023/08/14 05:26:37;;;;;;;25.27;9.82;;;23.30;94.50;;;;;;4954436;28;20098;-74
2023/08/14 05:29:03;;;;;;;17.30;9.75;;;23.30;95.30;;;;;;4954679;28;20026;-73
2023/08/14 05:31:29;;;;;;;14.23;8.80;;;23.20;96.00;;;;;;4942939;28;20494;-73
2023/08/14 05:33:55;;;;;;;16.50;9.05;;;23.20;96.00;;;;;;4938645;28;20102;-73
2023/08/14 05:36:21;;;;;;;13.48;9.05;;;23.00;96.60;;;;;;4935342;28;20023;-73
2023/08/14 05:38:46;;;;;;;15.60;10.15;;;23.00;97.40;;;;;;4935097;28;20460;-73
2023/08/14 05:41:12;;;;;;;13.90;9.48;;;23.00;97.40;;;;;;4935108;28;20404;-73
2023/08/14 05:43:38;;;;;;;16.65;9.27;;;23.10;98.20;;;;;;4935285;28;20028;-73
2023/08/14 05:46:04;;;;;;;14.98;9.82;;;23.20;98.10;;;;;;4935149;28;20468;-73
2023/08/14 05:48:30;;;;;;;15.32;9.30;;;23.20;97.70;;;;;;4935056;28;20027;-73
2023/08/14 05:50:55;;;;;;;16.90;9.88;;;23.30;97.60;;;;;;4934816;28;20032;-73
2023/08/14 05:53:22;;;;;;;14.55;9.40;;;23.30;97.80;;;;;;4934898;28;20031;-72
2023/08/14 05:55:48;;;;;;;15.85;9.68;;;23.50;97.90;;;;;;4936737;28;20176;-73
2023/08/14 05:58:14;;;;;;;15.68;9.75;;;23.50;97.60;;;;;;4941692;28;20512;-73
2023/08/14 06:00:39;;;;;;;14.85;9.88;;;23.60;98.30;;;;;;4939270;29;20027;-73
2023/08/14 06:03:05;;;;;;;14.18;10.10;;;23.60;97.80;;;;;;4935341;28;20388;-73
2023/08/14 06:05:32;;;;;;;14.23;10.07;;;23.70;97.70;;;;;;4952559;28;20490;-73
2023/08/14 06:07:58;;;;;;;15.05;8.55;;;23.90;97.30;;;;;;4949334;28;20039;-73
2023/08/14 06:10:24;;;;;;;15.60;8.63;;;24.00;96.20;;;;;;4946771;28;20075;-73
2023/08/14 06:12:50;;;;;;;13.60;8.43;;;24.10;95.10;;;;;;4950338;28;20106;-73
2023/08/14 06:15:20;;;;;;;11.70;7.60;;;24.20;94.40;;;;;;4941159;28;20032;-73
2023/08/14 06:17:46;;;;;;;12.48;8.00;;;24.20;94.20;;;;;;4938900;28;20039;-72
2023/08/14 06:20:12;;;;;;;12.20;8.50;;;24.20;94.80;;;;;;4942968;28;20032;-72
2023/08/14 06:22:43;;;;;;;13.23;8.13;;;24.50;95.30;;;;;;4947773;28;20483;-73
2023/08/14 06:25:11;;;;;;;12.75;7.63;;;24.60;94.90;;;;;;4942684;28;20023;-73
2023/08/14 06:27:37;;;;;;;11.85;8.10;;;24.90;93.20;;;;;;4944828;28;20087;-73
2023/08/14 06:30:04;;;;;;;17.17;7.97;;;24.90;92.90;;;;;;4939827;28;21191;-73
2023/08/14 06:32:30;;;;;;;12.73;8.10;;;25.00;92.70;;;;;;4952161;28;20061;-74
2023/08/14 06:34:56;;;;;;;14.75;8.57;;;25.10;92.20;;;;;;4939083;28;20394;-73
2023/08/14 06:37:22;;;;;;;21.13;7.90;;;25.30;92.30;;;;;;4952655;28;20038;-72
2023/08/14 06:39:47;;;;;;;11.80;7.43;;;25.50;92.30;;;;;;4943260;29;20038;-73
2023/08/14 06:42:13;;;;;;;12.07;7.05;;;25.70;92.00;;;;;;4937188;28;20054;-73
2023/08/14 06:44:42;;;;;;;15.82;7.78;;;25.60;91.00;;;;;;4935835;28;20038;-73
2023/08/14 06:47:07;;;;;;;9.63;6.57;;;25.80;91.40;;;;;;4935185;28;20051;-73
2023/08/14 06:49:33;;;;;;;15.48;7.45;;;25.80;90.50;;;;;;4948133;28;20035;-73
2023/08/14 06:52:00;;;;;;;11.93;6.50;;;25.90;91.50;;;;;;4941252;28;20083;-73
2023/08/14 06:54:26;;;;;;;12.38;6.70;;;26.20;91.50;;;;;;4942581;28;20383;-73
2023/08/14 06:56:51;;;;;;;10.55;6.82;;;26.30;90.80;;;;;;4944814;28;20035;-74
2023/08/14 06:59:17;;;;;;;21.65;6.65;;;26.40;90.30;;;;;;4941222;28;20038;-73
2023/08/14 07:01:43;;;;;;;9.10;5.88;;;26.70;90.00;;;;;;4945093;28;20063;-73
2023/08/14 07:04:09;;;;;;;13.07;7.05;;;26.90;89.50;;;;;;4944025;28;20055;-73
2023/08/14 07:06:34;;;;;;;11.27;6.45;;;26.90;87.80;;;;;;4955929;28;20102;-73
2023/08/14 07:09:00;;;;;;;11.13;5.60;;;27.10;85.80;;;;;;4956986;28;20019;-74
2023/08/14 07:11:26;;;;;;;9.93;5.78;;;27.00;85.20;;;;;;4936226;29;20035;-74
2023/08/14 07:13:54;;;;;;;7.70;4.20;;;27.30;86.40;;;;;;4936025;29;20140;-74
2023/08/14 07:16:20;;;;;;;12.68;4.55;;;26.90;81.40;;;;;;4936442;29;20043;-73
2023/08/14 07:18:46;;;;;;;10.45;4.90;;;27.00;81.20;;;;;;4912808;29;20036;-74
2023/08/14 07:21:12;;;;;;;7.95;4.38;;;27.30;83.30;;;;;;4925484;29;20028;-75
2023/08/14 07:23:38;;;;;;;9.07;5.07;;;27.50;80.70;;;;;;4918927;29;20024;-73
2023/08/14 07:26:11;;;;;;;10.02;5.07;;;27.00;81.00;;;;;;4918970;29;20055;-72
2023/08/14 07:28:39;;;;;;;10.38;5.18;;;27.20;82.70;;;;;;4931107;29;20100;-73
2023/08/14 07:31:05;;;;;;;9.38;4.88;;;27.30;81.20;;;;;;4923563;29;20051;-73
2023/08/14 07:33:31;;;;;;;6.72;4.70;;;27.20;80.80;;;;;;4926718;29;20036;-74
2023/08/14 07:35:58;;;;;;;8.10;5.25;;;27.30;83.40;;;;;;4931703;29;20031;-73
2023/08/14 07:38:25;;;;;;;15.63;7.93;;;27.50;81.20;;;;;;4922170;29;20072;-73
2023/08/14 07:40:55;;;;;;;16.17;7.10;;;27.60;82.90;;;;;;4918168;29;20123;-72
2023/08/14 07:43:22;;;;;;;11.25;5.55;;;27.40;82.00;;;;;;4926436;29;20496;-72
2023/08/14 07:45:48;;;;;;;8.88;5.63;;;27.80;81.80;;;;;;4918446;29;20111;-72
2023/08/14 07:48:13;;;;;;;13.93;5.85;;;27.90;81.80;;;;;;4925147;29;20448;-73
2023/08/14 07:50:39;;;;;;;10.80;5.50;;;27.90;81.40;;;;;;4930533;29;20043;-74
2023/08/14 07:53:05;;;;;;;11.13;5.28;;;27.90;81.60;;;;;;4922395;29;20063;-72
2023/08/14 07:55:31;;;;;;;16.80;6.18;;;28.20;83.30;;;;;;4923220;29;20059;-73
2023/08/14 07:57:57;;;;;;;17.55;5.70;;;28.00;82.80;;;;;;4920431;29;20114;-72
2023/08/14 08:00:23;;;;;;;12.63;5.47;;;28.20;82.50;;;;;;4926191;29;20028;-73
2023/08/14 08:02:48;;;;;;;14.27;5.88;;;28.40;83.10;;;;;;4918154;29;20028;-73
2023/08/14 08:05:15;;;;;;;14.30;6.53;;;28.60;81.50;;;;;;4926955;29;20035;-72
2023/08/14 08:07:41;;;;;;;12.35;6.13;;;28.70;82.50;;;;;;4918665;29;20395;-73
2023/08/14 08:10:07;;;;;;;8.77;4.80;;;28.30;80.60;;;;;;4897566;28;1176778;-73
2023/08/14 08:12:33;;;;;;;16.88;5.90;;;28.30;83.00;;;;;;4946477;28;20417;-72
2023/08/14 08:14:59;;;;;;;17.75;6.72;;;28.30;82.80;;;;;;4950860;28;20019;-73
2023/08/14 08:17:25;;;;;;;8.27;5.03;;;28.60;84.90;;;;;;4939952;28;20023;-72
2023/08/14 08:19:51;;;;;;;8.00;4.85;;;27.90;81.30;;;;;;4935042;29;20032;-73
2023/08/14 08:22:17;;;;;;;12.63;8.27;;;28.10;82.80;;;;;;4948532;28;20384;-74
2023/08/14 08:24:43;;;;;;;12.40;5.82;;;28.30;82.90;;;;;;4955286;29;20554;-73
2023/08/14 08:27:10;;;;;;;8.38;4.78;;;28.50;82.80;;;;;;4940527;28;20126;-72
2023/08/14 08:29:36;;;;;;;8.20;5.07;;;28.30;82.60;;;;;;4954999;28;20016;-72
2023/08/14 08:32:02;;;;;;;15.07;5.03;;;28.00;82.00;;;;;;4955313;28;20509;-74
2023/08/14 08:34:27;;;;;;;14.20;5.20;;;28.50;84.90;;;;;;4937551;28;20106;-71
2023/08/14 08:36:53;;;;;;;11.40;5.30;;;28.20;81.30;;;;;;4952324;28;20043;-73
2023/08/14 08:39:20;;;;;;;8.57;4.43;;;28.50;82.70;;;;;;4954694;28;20023;-73
2023/08/14 08:41:48;;;;;;;7.50;4.63;;;28.50;81.30;;;;;;4955438;28;20031;-72
2023/08/14 08:44:30;;;;;;;9.70;4.32;;;28.70;81.80;;;;;;4955135;28;20542;-72
2023/08/14 08:47:06;;;;;;;8.38;4.93;;;28.50;82.50;;;;;;4955124;28;20113;-74
2023/08/14 08:49:33;;;;;;;9.55;4.35;;;28.60;83.20;;;;;;4949654;28;20431;-76
2023/08/14 08:52:01;;;;;;;8.55;4.20;;;28.90;81.20;;;;;;4954569;28;20031;-73
2023/08/14 08:54:27;;;;;;;6.57;4.20;;;29.20;93.90;;;;;;4941206;28;20062;-74
2023/08/14 08:56:56;;;;;;;10.95;5.03;;;28.80;80.40;;;;;;4945670;28;20487;-74
2023/08/14 08:59:22;;;;;;;7.88;4.53;;;28.80;81.10;;;;;;4937952;28;20058;-74
2023/08/14 09:01:48;;;;;;;7.32;4.82;;;28.80;81.00;;;;;;4939202;28;20027;-75
2023/08/14 09:04:15;;;;;;;7.45;5.05;;;28.50;81.40;;;;;;4941709;28;20055;-73
2023/08/14 09:06:41;;;;;;;7.90;4.85;;;28.50;82.80;;;;;;4951988;28;20039;-73
2023/08/14 09:09:10;;;;;;;11.10;5.22;;;28.90;80.80;;;;;;4946114;28;20027;-74
2023/08/14 09:11:36;;;;;;;7.82;4.78;;;;;;;;;;4940655;28;20043;-72
2023/08/14 09:14:02;;;;;;;7.28;4.43;;;29.30;84.80;;;;;;4939509;28;20020;-73
2023/08/14 09:16:28;;;;;;;7.55;4.50;;;29.00;79.20;;;;;;4937756;28;20038;-75
2023/08/14 09:18:58;;;;;;;6.47;4.15;;;29.50;80.30;;;;;;4952894;28;20023;-73
2023/08/14 09:21:25;;;;;;;10.02;4.90;;;29.60;81.00;;;;;;4947003;28;20032;-74
2023/08/14 09:23:52;;;;;;;6.50;4.25;;;29.60;81.20;;;;;;4948971;28;20038;-75
2023/08/14 09:26:19;;;;;;;7.57;5.10;;;;;;;;;;4936799;28;20024;-74
2023/08/14 09:28:45;;;;;;;6.55;4.70;;;29.80;80.40;;;;;;4948773;28;20498;-74
2023/08/14 09:31:12;;;;;;;11.98;5.53;;;30.00;80.50;;;;;;4954546;28;20033;-74
2023/08/14 09:33:42;;;;;;;10.38;4.47;;;30.10;82.90;;;;;;4954567;28;20031;-73
2023/08/14 09:36:08;;;;;;;8.07;5.22;;;30.20;83.60;;;;;;4954344;28;20407;-74
2023/08/14 09:38:35;;;;;;;8.02;5.30;;;;;;;;;;4954135;28;20530;-73
2023/08/14 09:41:01;;;;;;;7.90;5.07;;;30.40;83.00;;;;;;4954051;28;20078;-73
2023/08/14 09:43:29;;;;;;;9.43;5.05;;;30.40;81.00;;;;;;4953862;28;20078;-74
2023/08/14 09:45:58;;;;;;;9.52;5.80;;;30.30;82.00;;;;;;4954518;28;20402;-73
2023/08/14 09:48:41;;;;;;;8.98;4.90;;;30.50;83.50;;;;;;4954635;28;20534;-74
2023/08/14 09:51:15;;;;;;;7.85;4.70;;;29.70;81.80;;;;;;4954068;28;20037;-73
2023/08/14 09:53:52;;;;;;;10.85;5.65;;;30.10;82.50;;;;;;4953658;28;20027;-74
2023/08/14 09:56:19;;;;;;;7.57;5.30;;;30.30;82.40;;;;;;4953577;28;20506;-76
2023/08/14 09:58:48;;;;;;;7.65;5.28;;;30.20;80.60;;;;;;4953819;28;20382;-74
2023/08/14 10:01:15;;;;;;;10.27;5.70;;;30.30;81.80;;;;;;4953626;28;20042;-73
2023/08/14 10:03:42;;;;;;;8.23;5.72;;;29.70;81.60;;;;;;4953777;28;20063;-73
2023/08/14 10:06:10;;;;;;;9.43;5.00;;;30.00;83.70;;;;;;4954086;28;20039;-75
2023/08/14 10:08:37;;;;;;;7.40;4.95;;;;;;;;;;4953965;28;20082;-76
2023/08/14 10:11:04;;;;;;;10.73;5.78;;;30.10;90.10;;;;;;4953907;28;20063;-74
2023/08/14 10:13:35;;;;;;;7.32;5.50;;;30.40;91.90;;;;;;4954639;28;20483;-74
2023/08/14 10:16:08;;;;;;;7.85;5.10;;;30.50;77.10;;;;;;4947434;28;20471;-73
2023/08/14 10:18:39;;;;;;;5.82;4.63;;;30.50;78.10;;;;;;4949451;28;20031;-74
2023/08/14 10:21:11;;;;;;;9.13;4.80;;;30.60;76.30;;;;;;4952691;29;20063;-73
2023/08/14 10:23:38;;;;;;;9.98;5.03;;;29.80;74.10;;;;;;4943871;29;20107;-73
2023/08/14 10:26:06;;;;;;;8.82;5.47;;;30.40;78.00;;;;;;4934631;29;20475;-73
2023/08/14 10:28:33;;;;;;;7.15;4.90;;;30.10;77.80;;;;;;4951291;29;20031;-73
2023/08/14 10:31:00;;;;;;;8.98;5.78;;;29.60;77.40;;;;;;4933541;29;20028;-75
2023/08/14 10:33:27;;;;;;;7.45;5.70;;;29.40;78.30;;;;;;4932404;29;20035;-73
2023/08/14 10:35:58;;;;;;;12.00;6.45;;;29.50;79.00;;;;;;4936965;29;20039;-75
2023/08/14 10:38:46;;;;;;;15.38;5.43;;;29.80;79.60;;;;;;4937122;29;20051;-73
2023/08/14 10:41:16;;;;;;;6.60;5.05;;;29.80;78.90;;;;;;4942790;28;20036;-75
2023/08/14 10:43:42;;;;;;;8.10;5.00;;;29.90;79.00;;;;;;4957535;28;20066;-73
2023/08/14 10:46:14;;;;;;;8.05;5.28;;;30.00;79.00;;;;;;4957628;28;20443;-74
2023/08/14 10:48:42;;;;;;;12.77;5.82;;;30.10;79.00;;;;;;4957171;29;20418;-75
2023/08/14 10:51:08;;;;;;;14.20;6.05;;;29.90;78.90;;;;;;4957243;28;20031;-74
2023/08/14 10:53:35;;;;;;;8.10;5.80;;;30.20;79.50;;;;;;4957458;28;20545;-73
2023/08/14 10:56:03;;;;;;;6.65;5.07;;;30.20;77.60;;;;;;4956529;28;20026;-73
2023/08/14 10:58:32;;;;;;;7.60;4.90;;;30.10;76.80;;;;;;4957728;28;20071;-74
2023/08/14 11:01:03;;;;;;;9.80;5.45;;;30.00;77.00;;;;;;4957487;28;20046;-73
2023/08/14 11:03:32;;;;;;;7.97;5.18;;;30.10;76.30;;;;;;4957420;29;20053;-74
2023/08/14 11:05:58;;;;;;;8.25;5.25;;;30.10;76.20;;;;;;4942628;28;20031;-74
2023/08/14 11:08:29;;;;;;;10.05;4.65;;;30.30;77.20;;;;;;4949897;29;20036;-74
2023/08/14 11:10:55;;;;;;;9.43;5.35;;;;;;;;;;4936133;29;20559;-73
2023/08/14 11:13:22;;;;;;;7.00;5.05;;;30.50;92.10;;;;;;4935910;29;20035;-74
2023/08/14 11:15:48;;;;;;;9.15;4.72;;;30.30;91.70;;;;;;4942557;29;20012;-76
2023/08/14 11:18:15;;;;;;;8.63;4.63;;;30.30;90.30;;;;;;4943391;28;20381;-74
2023/08/14 11:20:42;;;;;;;8.60;5.57;;;30.30;90.70;;;;;;4941931;28;20031;-76
2023/08/14 11:23:09;;;;;;;6.45;5.07;;;30.30;91.00;;;;;;4958526;28;20483;-75
2023/08/14 11:25:35;;;;;;;7.57;5.22;;;30.50;91.50;;;;;;4956653;29;20070;-74
2023/08/14 11:28:01;;;;;;;7.07;4.97;;;30.40;91.70;;;;;;4957180;28;20035;-77
2023/08/14 11:30:32;;;;;;;7.88;4.68;;;30.20;91.20;;;;;;4956129;28;20538;-76
2023/08/14 11:32:58;;;;;;;8.70;4.90;;;29.90;91.60;;;;;;4957093;28;20046;-72
2023/08/14 11:35:28;;;;;;;6.40;4.88;;;30.10;91.70;;;;;;4963248;28;20273;-76
2023/08/14 11:37:55;;;;;;;7.10;5.10;;;30.30;91.90;;;;;;4957806;29;20380;-77
2023/08/14 11:40:21;;;;;;;7.75;4.88;;;30.50;90.60;;;;;;4957374;29;20036;-73
2023/08/14 11:42:50;;;;;;;9.55;5.05;;;30.10;90.00;;;;;;4957123;29;20035;-77
2023/08/14 11:45:17;;;;;;;9.02;5.30;;;30.40;90.40;;;;;;4934696;29;20035;-75
2023/08/14 11:47:50;;;;;;;15.07;5.18;;;30.20;90.80;;;;;;4957343;28;20046;-73
2023/08/14 11:50:17;;;;;;;9.27;5.68;;;30.50;91.00;;;;;;4959353;28;20085;-77
2023/08/14 11:52:44;;;;;;;7.38;5.20;;;30.50;90.90;;;;;;4954855;28;20081;-74
2023/08/14 11:55:12;;;;;;;8.02;4.85;;;30.50;90.70;;;;;;4950867;28;20364;-77
2023/08/14 11:57:38;;;;;;;9.90;5.13;;;30.50;90.40;;;;;;4938480;29;20035;-76
2023/08/14 12:00:13;;;;;;;7.13;4.50;;;30.60;90.80;;;;;;4957048;28;20032;-73
2023/08/14 12:02:42;;;;;;;7.97;5.20;;;30.50;91.20;;;;;;4949901;29;20034;-75
2023/08/14 12:05:09;;;;;;;9.20;5.63;;;30.60;88.80;;;;;;4957348;28;20039;-75
2023/08/14 12:07:35;;;;;;;9.80;5.32;;;30.70;80.80;;;;;;4956722;28;20360;-74
2023/08/14 12:10:07;;;;;;;9.65;5.00;;;30.70;86.70;;;;;;4956608;28;20069;-76
2023/08/14 12:12:33;;;;;;;8.63;5.10;;;30.80;92.20;;;;;;4956562;28;20051;-74
2023/08/14 12:14:59;;;;;;;16.33;6.38;;;30.80;75.70;;;;;;4956569;28;20019;-73
2023/08/14 12:17:25;;;;;;;8.68;5.55;;;30.90;75.50;;;;;;4943822;28;20493;-75
2023/08/14 12:19:53;;;;;;;8.55;5.60;;;30.60;74.90;;;;;;4941524;29;20455;-76
2023/08/14 12:22:21;;;;;;;10.52;5.55;;;30.40;74.50;;;;;;4956697;28;20038;-77
2023/08/14 12:24:48;;;;;;;11.63;5.82;;;30.60;75.30;;;;;;4956530;28;20379;-77
2023/08/14 12:27:22;;;;;;;15.90;6.32;;;30.60;75.40;;;;;;4954644;28;20446;-74
2023/08/14 12:30:01;;;;;;;12.68;5.75;;;30.60;76.50;;;;;;4953317;28;20531;-75
2023/08/14 12:32:27;;;;;;;9.93;5.88;;;30.60;74.20;;;;;;4956511;28;20075;-76
2023/08/14 12:34:53;;;;;;;9.65;5.25;;;30.70;74.90;;;;;;4963861;28;20031;-76
2023/08/14 12:37:20;;;;;;;15.15;6.63;;;30.80;76.90;;;;;;4956499;29;20031;-76
2023/08/14 12:39:55;;;;;;;8.73;5.57;;;30.80;77.00;;;;;;4955205;28;20069;-76
2023/08/14 12:42:22;;;;;;;11.48;5.05;;;30.90;76.00;;;;;;4942701;29;20411;-75